createdAt,value
2023-01-18T00:03:42.471Z,0.52
2023-01-18T00:08:46.344Z,0.34
2023-01-18T00:13:49.798Z,0.41
2023-01-18T00:18:56.287Z,0.25
2023-01-18T00:23:59.736Z,0.34
2023-01-18T00:29:03.230Z,0.30
2023-01-18T00:34:08.718Z,0.32
2023-01-18T00:39:13.049Z,0.43
2023-01-18T00:44:16.472Z,0.43
2023-01-18T00:49:21.355Z,0.57
2023-01-18T00:54:24.500Z,0.52
2023-01-18T00:59:27.890Z,0.43
2023-01-18T01:04:50.668Z,0.53
2023-01-18T01:09:54.017Z,0.44
2023-01-18T01:15:16.514Z,0.37
2023-01-18T01:20:39.319Z,0.37
2023-01-18T01:26:00.141Z,0.50
2023-01-18T01:31:04.736Z,0.63
2023-01-18T01:36:12.951Z,0.50
2023-01-18T01:41:19.245Z,0.48
2023-01-18T01:46:31.462Z,0.65
2023-01-18T01:51:39.254Z,0.67
2023-01-18T01:56:44.350Z,0.70
2023-01-18T02:01:48.227Z,0.60
2023-01-18T02:06:53.108Z,0.57
2023-01-18T02:11:57.080Z,0.88
2023-01-18T02:17:14.128Z,0.75
2023-01-18T02:22:35.383Z,0.62
2023-01-18T02:27:44.715Z,0.76
2023-01-18T02:33:08.064Z,0.66
2023-01-18T02:38:14.522Z,0.70
2023-01-18T02:43:38.000Z,1.00
2023-01-18T02:48:44.788Z,0.89
2023-01-18T02:53:51.325Z,0.90
2023-01-18T02:59:00.855Z,1.13
2023-01-18T03:04:11.482Z,0.80
2023-01-18T03:09:18.736Z,0.74
2023-01-18T03:14:31.894Z,1.00
2023-01-18T03:20:03.974Z,1.06
2023-01-18T03:25:10.775Z,1.11
2023-01-18T03:30:32.033Z,1.03
2023-01-18T03:35:39.405Z,1.06
2023-01-18T03:40:42.947Z,0.91
2023-01-18T03:45:49.291Z,0.92
2023-01-18T03:51:00.542Z,0.93
2023-01-18T03:56:10.284Z,0.88
2023-01-18T04:01:14.198Z,0.87
2023-01-18T04:06:22.942Z,0.90
2023-01-18T04:11:26.348Z,0.67
2023-01-18T04:16:29.999Z,1.05
2023-01-18T04:21:34.752Z,1.00
2023-01-18T04:26:38.090Z,0.91
2023-01-18T04:31:41.431Z,1.02
2023-01-18T04:36:46.265Z,1.20
2023-01-18T04:41:49.353Z,1.14
2023-01-18T04:46:52.927Z,0.94
2023-01-18T04:51:57.880Z,1.10
2023-01-18T04:57:02.698Z,1.10
2023-01-18T05:02:06.000Z,1.11
2023-01-18T05:07:10.957Z,1.04
2023-01-18T05:12:14.070Z,1.20
2023-01-18T07:11:16.474Z,-0.32
2023-01-18T07:16:21.425Z,0.01
2023-01-18T07:21:29.644Z,0.37
2023-01-18T07:26:36.248Z,0.45
2023-01-18T07:31:44.156Z,0.40
2023-01-18T07:36:47.641Z,0.37
2023-01-18T07:41:52.513Z,0.46
2023-01-18T07:46:55.530Z,0.29
2023-01-18T07:51:59.039Z,0.40
2023-01-18T07:57:03.863Z,0.65
2023-01-18T08:02:08.826Z,0.71
2023-01-18T08:07:11.892Z,0.83
2023-01-18T08:12:18.706Z,0.92
2023-01-18T08:17:22.501Z,0.93
2023-01-18T08:22:25.914Z,0.95
2023-01-18T08:27:30.800Z,0.81
2023-01-18T08:32:34.415Z,0.77
2023-01-18T08:37:39.328Z,0.87
2023-01-18T08:42:44.137Z,1.19
2023-01-18T08:47:47.646Z,1.13
2023-01-18T08:52:52.653Z,1.13
2023-01-18T08:57:58.441Z,1.18
2023-01-18T09:03:03.016Z,0.95
2023-01-18T09:08:06.715Z,0.95
2023-01-18T09:13:11.668Z,1.05
2023-01-18T09:18:15.362Z,1.10
2023-01-18T09:23:19.068Z,1.16
2023-01-18T09:28:23.913Z,1.14
2023-01-18T09:33:36.924Z,1.14
2023-01-18T09:38:42.501Z,1.29
2023-01-18T09:43:52.944Z,1.13
2023-01-18T09:48:59.176Z,1.26
2023-01-18T09:54:15.961Z,1.18
2023-01-18T09:59:28.640Z,1.70
2023-01-18T10:04:36.488Z,1.64
2023-01-18T10:09:43.253Z,1.39
2023-01-18T10:14:54.580Z,1.35
2023-01-18T10:19:58.045Z,1.52
2023-01-18T10:25:06.819Z,1.31
2023-01-18T10:30:29.586Z,1.28
2023-01-18T10:35:36.112Z,1.28
2023-01-18T10:40:41.229Z,1.29
2023-01-18T10:45:46.093Z,1.20
2023-01-18T10:50:53.067Z,1.18
2023-01-18T10:56:02.202Z,1.22
2023-01-18T11:01:07.636Z,1.28
2023-01-18T11:06:11.092Z,1.39
2023-01-18T11:11:19.948Z,1.25
2023-01-18T11:16:25.130Z,1.22
2023-01-18T11:21:31.743Z,1.01
2023-01-18T11:26:36.208Z,1.02
2023-01-18T11:31:48.864Z,1.02
2023-01-18T11:36:52.384Z,1.34
2023-01-18T11:42:21.984Z,1.31
2023-01-18T11:47:33.429Z,1.43
2023-01-18T11:52:43.666Z,1.43
2023-01-18T11:57:47.424Z,1.55
2023-01-18T12:03:20.980Z,1.61
2023-01-18T12:08:53.280Z,1.47
2023-01-18T12:14:03.447Z,1.63
2023-01-18T12:19:35.557Z,1.42
2023-01-18T12:24:49.625Z,1.46
2023-01-18T12:30:24.094Z,1.58
2023-01-18T12:35:45.177Z,1.39
2023-01-18T12:41:14.676Z,1.51
2023-01-18T12:46:24.539Z,1.27
2023-01-18T12:51:33.814Z,1.46
2023-01-18T12:56:41.442Z,1.42
2023-01-18T13:01:51.946Z,1.66
2023-01-18T13:06:59.483Z,1.61
2023-01-18T13:12:04.118Z,1.48
2023-01-18T13:17:12.561Z,1.46
2023-01-18T13:22:26.460Z,1.29
2023-01-18T13:27:31.437Z,1.42
2023-01-18T13:32:37.128Z,1.44
2023-01-18T13:37:47.916Z,1.50
2023-01-18T13:42:51.724Z,1.51
2023-01-18T13:48:01.728Z,1.64
2023-01-18T13:53:29.532Z,1.50
2023-01-18T13:58:38.236Z,1.48
2023-01-18T14:03:49.366Z,1.51
2023-01-18T14:08:56.810Z,1.60
2023-01-18T14:14:08.579Z,1.54
2023-01-18T14:19:17.367Z,1.57
2023-01-18T14:24:43.755Z,1.28
2023-01-18T14:29:50.780Z,1.46
2023-01-18T14:34:59.752Z,1.39
2023-01-18T14:40:18.864Z,1.41
2023-01-18T14:45:27.700Z,1.45
2023-01-18T14:50:37.586Z,1.49
2023-01-18T14:55:42.905Z,1.35
2023-01-18T15:00:50.427Z,1.37
2023-01-18T15:06:01.908Z,1.35
2023-01-18T15:11:08.679Z,1.42
2023-01-18T15:16:13.251Z,1.80
2023-01-18T15:21:22.556Z,1.51
2023-01-18T15:26:44.852Z,1.51
2023-01-18T15:31:51.446Z,1.75
2023-01-18T15:36:56.400Z,1.86
2023-01-18T15:42:04.726Z,1.76
2023-01-18T15:47:17.064Z,1.71
2023-01-18T15:52:39.984Z,1.69
2023-01-18T15:57:56.141Z,1.79
2023-01-18T16:02:59.974Z,1.75
2023-01-18T16:08:21.778Z,1.84
2023-01-18T16:13:36.044Z,1.81
2023-01-18T16:18:39.877Z,1.81
2023-01-18T16:23:47.662Z,1.52
2023-01-18T16:28:53.810Z,1.61
2023-01-18T16:33:57.149Z,1.54
2023-01-18T16:39:00.591Z,1.68
2023-01-18T16:44:06.348Z,1.82
2023-01-18T16:49:13.531Z,1.37
2023-01-18T16:54:17.146Z,1.30
2023-01-18T16:59:23.153Z,1.17
2023-01-18T17:04:26.968Z,1.29
2023-01-18T17:09:32.476Z,1.34
2023-01-18T17:14:39.530Z,1.09
2023-01-18T17:19:42.854Z,1.12
2023-01-18T17:24:46.686Z,0.95
2023-01-18T17:29:51.544Z,0.87
2023-01-18T17:34:55.011Z,0.83
2023-01-18T17:40:11.222Z,0.54
2023-01-18T17:45:18.142Z,0.60
2023-01-18T17:50:25.213Z,0.41
2023-01-18T17:55:34.662Z,0.78
2023-01-18T18:00:40.083Z,0.45
2023-01-18T18:05:43.831Z,0.63
2023-01-18T18:10:47.351Z,0.81
2023-01-18T18:15:52.295Z,0.79
2023-01-18T18:20:58.218Z,0.59
2023-01-18T18:26:03.506Z,0.76
2023-01-18T18:31:15.901Z,0.63
2023-01-18T18:36:19.234Z,0.54
2023-01-18T18:41:22.767Z,0.66
2023-01-18T18:46:27.675Z,0.75
2023-01-18T18:51:31.061Z,0.84
2023-01-18T18:56:34.670Z,0.87
2023-01-18T19:01:39.730Z,1.07
2023-01-18T19:06:43.261Z,0.96
2023-01-18T19:11:55.116Z,0.78
2023-01-18T19:17:00.469Z,0.78
2023-01-18T19:22:03.530Z,0.60
2023-01-18T19:27:07.157Z,0.71
2023-01-18T19:32:12.069Z,0.73
2023-01-18T19:37:15.255Z,0.46
2023-01-18T19:42:18.652Z,0.77
2023-01-18T19:47:23.515Z,0.78
2023-01-18T19:52:26.692Z,0.39
2023-01-18T19:57:30.974Z,0.68
2023-01-18T20:02:36.134Z,0.53
2023-01-18T20:07:39.862Z,0.63
2023-01-18T20:12:43.302Z,0.85
2023-01-18T20:17:48.308Z,0.50
2023-01-18T20:22:51.676Z,0.72
2023-01-18T20:27:55.969Z,0.66
2023-01-18T20:33:01.518Z,0.64
2023-01-18T20:38:05.072Z,0.85
2023-01-18T20:43:08.584Z,0.74
2023-01-18T20:48:15.346Z,0.53
2023-01-18T20:53:18.817Z,0.49
2023-01-18T20:58:22.979Z,0.71
2023-01-18T21:03:27.967Z,0.81
2023-01-18T21:08:30.956Z,0.54
2023-01-18T21:13:34.571Z,0.80
2023-01-18T21:18:39.549Z,0.78
2023-01-18T21:23:43.051Z,0.88
2023-01-18T21:28:49.197Z,0.92
2023-01-18T21:33:55.529Z,1.07
2023-01-18T21:39:01.359Z,1.21
2023-01-18T21:44:22.356Z,1.09
2023-01-18T21:50:15.452Z,1.23
2023-01-18T21:55:08.761Z,1.12
2023-01-18T22:00:13.291Z,1.17
2023-01-18T22:05:18.362Z,1.19
2023-01-18T22:10:21.548Z,1.23
2023-01-18T22:15:25.021Z,1.43
2023-01-18T22:20:30.981Z,1.32
2023-01-18T22:25:35.185Z,1.27
2023-01-18T22:30:38.722Z,1.26
2023-01-18T22:35:43.745Z,1.02
2023-01-18T22:40:46.747Z,0.95
2023-01-18T22:45:56.256Z,1.15
2023-01-18T22:51:03.145Z,0.95
2023-01-18T22:56:08.787Z,1.05
2023-01-18T23:01:16.792Z,1.21
2023-01-18T23:06:22.205Z,2.11
2023-01-18T23:11:27.264Z,1.67
2023-01-18T23:16:44.365Z,1.73
2023-01-18T23:21:49.476Z,1.85
2023-01-18T23:26:53.313Z,1.98
2023-01-18T23:31:57.518Z,1.99
2023-01-18T23:37:02.889Z,2.24
2023-01-18T23:42:23.823Z,2.18
2023-01-18T23:47:44.813Z,2.34
2023-01-18T23:53:09.406Z,2.40
2023-01-18T23:58:12.849Z,2.50
